Time;durP1;ratioP1;P1;durP2;ratioP2;P2;SDS_P1;SDS_P2;PMS_P1;PMS_P2;Temp;Humidity;BMP_temperature;BMP_pressure;BME280_temperature;BME280_humidity;BME280_pressure;Samples;Min_cycle;Max_cycle;Signal;HPM_P1;HPM_P2
2023/06/10 00:01:37;;;;;;;5.03;4.07;;;18.10;99.90;;;;;;5074688;28;20552;-81
2023/06/10 00:04:04;;;;;;;6.07;4.22;;;18.10;99.90;;;;;;5074275;28;20213;-81
2023/06/10 00:06:35;;;;;;;4.18;3.63;;;18.10;99.90;;;;;;5074502;28;20544;-81
2023/06/10 00:09:05;;;;;;;7.55;4.53;;;18.10;99.90;;;;;;5074403;28;20172;-81
2023/06/10 00:11:33;;;;;;;7.60;4.28;;;18.00;99.90;;;;;;5074728;28;20696;-82
2023/06/10 00:13:59;;;;;;;5.05;3.50;;;18.00;99.90;;;;;;5074385;28;20178;-81
2023/06/10 00:16:25;;;;;;;5.53;4.18;;;18.00;99.90;;;;;;5074657;28;20187;-81
2023/06/10 00:18:51;;;;;;;5.53;3.90;;;18.00;99.90;;;;;;5074045;28;20175;-81
2023/06/10 00:21:17;;;;;;;7.15;4.35;;;17.90;99.90;;;;;;5074319;28;20183;-81
2023/06/10 00:23:43;;;;;;;6.65;3.92;;;17.90;99.90;;;;;;5074052;28;20187;-81
2023/06/10 00:26:09;;;;;;;5.53;4.30;;;17.90;99.90;;;;;;5073493;28;20172;-81
2023/06/10 00:28:35;;;;;;;5.85;4.70;;;17.90;99.90;;;;;;5073649;28;20238;-81
2023/06/10 00:31:02;;;;;;;7.10;4.07;;;17.90;99.90;;;;;;5073781;28;20202;-81
2023/06/10 00:33:28;;;;;;;6.00;4.00;;;17.80;99.90;;;;;;5074132;28;20187;-81
2023/06/10 00:35:53;;;;;;;6.20;4.50;;;17.80;99.90;;;;;;5073982;28;20191;-81
2023/06/10 00:38:19;;;;;;;6.07;4.28;;;17.80;99.90;;;;;;5074064;28;20233;-81
2023/06/10 00:40:45;;;;;;;6.50;3.90;;;17.80;99.90;;;;;;5074068;28;20183;-82
2023/06/10 00:43:10;;;;;;;5.85;3.85;;;17.80;99.90;;;;;;5073717;28;20183;-81
2023/06/10 00:45:36;;;;;;;4.97;3.95;;;17.80;99.90;;;;;;5073631;28;20214;-81
2023/06/10 00:48:03;;;;;;;6.95;4.60;;;17.80;99.90;;;;;;5073596;28;20647;-81
2023/06/10 00:50:30;;;;;;;6.47;4.05;;;17.80;99.90;;;;;;5073530;28;20659;-81
2023/06/10 00:52:57;;;;;;;5.95;4.57;;;17.80;99.90;;;;;;5073167;28;20206;-81
2023/06/10 00:55:24;;;;;;;3.80;3.30;;;17.80;99.90;;;;;;5073596;28;20724;-81
2023/06/10 00:57:51;;;;;;;5.85;4.50;;;17.80;99.90;;;;;;5073443;28;20179;-82
2023/06/10 01:00:17;;;;;;;7.38;4.32;;;17.80;99.90;;;;;;5073216;28;20191;-82
2023/06/10 01:02:43;;;;;;;5.18;4.22;;;17.70;99.90;;;;;;5073618;28;20520;-82
2023/06/10 01:05:09;;;;;;;8.40;4.43;;;17.70;99.90;;;;;;5073231;28;20202;-81
2023/06/10 01:07:49;;;;;;;5.50;4.10;;;17.70;99.90;;;;;;5073556;28;20232;-82
2023/06/10 01:10:40;;;;;;;6.00;3.70;;;17.70;99.90;;;;;;5073411;28;20186;-81
2023/06/10 01:13:11;;;;;;;10.18;4.32;;;17.70;99.90;;;;;;5073203;28;20178;-82
2023/06/10 01:15:37;;;;;;;5.32;3.90;;;17.70;99.90;;;;;;5073253;28;20178;-81
2023/06/10 01:18:09;;;;;;;7.80;4.20;;;17.70;99.90;;;;;;5071889;28;20199;-81
2023/06/10 01:20:40;;;;;;;6.88;3.53;;;17.70;99.90;;;;;;5073474;28;20179;-82
2023/06/10 01:23:06;;;;;;;4.95;3.47;;;17.60;99.90;;;;;;5073189;28;20205;-81
2023/06/10 01:25:36;;;;;;;5.05;4.22;;;17.60;99.90;;;;;;5073181;28;20691;-81
2023/06/10 01:28:13;;;;;;;5.78;3.78;;;17.60;99.90;;;;;;5073031;28;20245;-81
2023/06/10 01:31:17;;;;;;;6.05;3.70;;;17.60;99.90;;;;;;5073247;28;20171;-81
2023/06/10 01:33:46;;;;;;;4.15;3.33;;;17.60;99.90;;;;;;5073405;28;20202;-81
2023/06/10 01:36:15;;;;;;;3.88;3.00;;;17.60;99.90;;;;;;5072909;28;20178;-81
2023/06/10 01:38:43;;;;;;;4.75;3.22;;;17.50;99.90;;;;;;5072638;28;20175;-81
2023/06/10 01:41:12;;;;;;;3.92;3.00;;;17.60;99.90;;;;;;5072981;28;20175;-81
2023/06/10 01:43:38;;;;;;;3.15;2.80;;;17.60;99.90;;;;;;5073114;28;20179;-81
2023/06/10 01:46:05;;;;;;;4.88;2.90;;;17.60;99.90;;;;;;5072835;28;20221;-81
2023/06/10 01:48:31;;;;;;;3.63;3.13;;;17.60;99.90;;;;;;5071811;28;20639;-81
2023/06/10 01:50:56;;;;;;;3.50;3.00;;;17.60;99.90;;;;;;5072998;28;20181;-81
2023/06/10 01:53:23;;;;;;;4.43;3.08;;;17.60;99.90;;;;;;5072746;28;20206;-81
2023/06/10 01:55:48;;;;;;;5.97;3.58;;;17.50;99.90;;;;;;5073041;28;20229;-81
2023/06/10 01:58:14;;;;;;;4.20;3.40;;;17.50;99.90;;;;;;5073011;28;20183;-81
2023/06/10 02:00:40;;;;;;;5.80;3.83;;;17.50;99.90;;;;;;5072902;28;20229;-81
2023/06/10 02:03:05;;;;;;;4.03;3.03;;;17.50;99.90;;;;;;5072679;28;20187;-81
2023/06/10 02:05:31;;;;;;;6.35;3.78;;;17.40;99.90;;;;;;5073064;28;20203;-81
2023/06/10 02:07:57;;;;;;;5.13;3.65;;;17.40;99.90;;;;;;5072745;28;20194;-82
2023/06/10 02:10:23;;;;;;;5.57;3.58;;;17.40;99.90;;;;;;5072761;28;20175;-82
2023/06/10 02:12:49;;;;;;;5.00;3.60;;;17.40;99.90;;;;;;5076768;28;20229;-83
2023/06/10 02:15:15;;;;;;;5.43;3.75;;;17.30;99.90;;;;;;5079645;28;20179;-81
2023/06/10 02:17:40;;;;;;;5.85;3.75;;;17.30;99.90;;;;;;5082803;28;20183;-83
2023/06/10 02:20:07;;;;;;;6.32;3.72;;;17.30;99.90;;;;;;5087302;28;20213;-81
2023/06/10 02:22:33;;;;;;;5.18;3.72;;;17.30;99.90;;;;;;5089573;28;20175;-81
2023/06/10 02:24:59;;;;;;;4.75;3.72;;;17.30;99.90;;;;;;5075477;28;20290;-82
2023/06/10 02:27:25;;;;;;;4.40;3.25;;;17.20;99.90;;;;;;5071442;28;20313;-82
2023/06/10 02:29:50;;;;;;;5.25;3.05;;;17.20;99.90;;;;;;5073008;28;20178;-82
2023/06/10 02:32:16;;;;;;;5.88;3.60;;;17.20;99.90;;;;;;5071351;28;20666;-82
2023/06/10 02:34:42;;;;;;;4.55;3.50;;;17.20;99.90;;;;;;5072672;28;20175;-83
2023/06/10 02:37:09;;;;;;;5.75;3.20;;;17.10;99.90;;;;;;5072281;28;20307;-81
2023/06/10 02:39:34;;;;;;;7.68;3.28;;;17.10;99.90;;;;;;5072949;28;20178;-82
2023/06/10 02:42:00;;;;;;;3.92;3.00;;;17.10;99.90;;;;;;5072800;28;20184;-82
2023/06/10 02:44:26;;;;;;;3.53;2.85;;;17.10;99.90;;;;;;5072580;28;20211;-81
2023/06/10 02:46:51;;;;;;;4.45;3.60;;;17.10;99.90;;;;;;5071386;28;20206;-81
2023/06/10 02:49:17;;;;;;;4.50;3.25;;;17.10;99.90;;;;;;5072331;28;20172;-81
2023/06/10 02:51:42;;;;;;;3.58;3.05;;;17.10;99.90;;;;;;5075746;28;20554;-82
2023/06/10 02:54:08;;;;;;;6.35;3.92;;;17.10;99.90;;;;;;5076033;28;20631;-81
2023/06/10 02:56:34;;;;;;;3.67;3.03;;;17.10;99.90;;;;;;5076325;28;20245;-82
2023/06/10 02:59:00;;;;;;;3.92;3.15;;;17.00;99.90;;;;;;5076101;28;20198;-82
2023/06/10 03:01:26;;;;;;;3.88;2.88;;;17.00;99.90;;;;;;5075575;28;20605;-82
2023/06/10 03:03:52;;;;;;;3.13;2.40;;;17.10;99.90;;;;;;5075987;28;20179;-83
2023/06/10 03:06:18;;;;;;;7.45;3.88;;;17.10;99.90;;;;;;5075826;28;20183;-82
2023/06/10 03:08:45;;;;;;;9.82;3.92;;;17.10;99.90;;;;;;5076207;28;20512;-82
2023/06/10 03:11:11;;;;;;;12.05;4.18;;;17.10;99.90;;;;;;5075563;28;20592;-82
2023/06/10 03:13:38;;;;;;;5.38;2.85;;;17.10;99.90;;;;;;5075821;28;20270;-83
2023/06/10 03:16:04;;;;;;;5.70;2.50;;;17.10;99.90;;;;;;5075680;28;20179;-83
2023/06/10 03:18:30;;;;;;;5.05;3.15;;;17.10;99.90;;;;;;5075700;28;20179;-82
2023/06/10 03:20:56;;;;;;;6.55;3.75;;;17.10;99.90;;;;;;5075379;28;20195;-82
2023/06/10 03:23:23;;;;;;;3.63;2.83;;;17.10;99.90;;;;;;5075390;28;20175;-82
2023/06/10 03:25:48;;;;;;;3.70;3.00;;;17.10;99.90;;;;;;5075622;28;20242;-82
2023/06/10 03:28:14;;;;;;;5.10;3.33;;;17.00;99.90;;;;;;5075287;28;20328;-81
2023/06/10 03:30:40;;;;;;;4.72;2.78;;;17.00;99.90;;;;;;5075264;28;20544;-82
2023/06/10 03:33:05;;;;;;;5.00;3.40;;;17.00;99.90;;;;;;5074047;28;20328;-82
2023/06/10 03:35:34;;;;;;;5.50;2.97;;;16.90;99.90;;;;;;5074953;28;20198;-81
2023/06/10 03:38:00;;;;;;;4.70;3.65;;;16.90;99.90;;;;;;5075483;28;20237;-82
2023/06/10 03:40:26;;;;;;;5.82;3.88;;;16.90;99.90;;;;;;5075139;28;20211;-82
2023/06/10 03:42:51;;;;;;;5.80;3.17;;;16.90;99.90;;;;;;5075190;28;20182;-82
2023/06/10 03:45:17;;;;;;;6.88;3.83;;;16.90;99.90;;;;;;5074686;28;20573;-82
2023/06/10 03:47:43;;;;;;;10.05;4.07;;;16.90;99.90;;;;;;5075141;28;20175;-82
2023/06/10 03:50:09;;;;;;;7.05;3.40;;;16.90;99.90;;;;;;5074755;28;20183;-82
2023/06/10 03:52:36;;;;;;;4.05;3.22;;;16.80;99.90;;;;;;5074795;28;20215;-82
2023/06/10 03:55:02;;;;;;;5.25;3.90;;;16.80;99.90;;;;;;5074994;28;20175;-82
2023/06/10 03:57:27;;;;;;;6.82;3.60;;;16.80;99.90;;;;;;5075095;28;20262;-82
2023/06/10 03:59:54;;;;;;;8.40;3.97;;;16.70;99.90;;;;;;5074766;28;20203;-82
2023/06/10 04:02:19;;;;;;;4.80;3.45;;;16.70;99.90;;;;;;5056528;28;20542;-82
2023/06/10 04:04:45;;;;;;;4.82;3.80;;;16.70;99.90;;;;;;5074789;28;20211;-82
2023/06/10 04:07:12;;;;;;;4.00;2.85;;;16.80;99.90;;;;;;5074955;28;20175;-83
2023/06/10 04:09:38;;;;;;;4.07;3.40;;;16.70;99.90;;;;;;5074614;28;20179;-82
2023/06/10 04:12:06;;;;;;;5.63;3.72;;;16.70;99.90;;;;;;5075035;28;20183;-83
2023/06/10 04:14:31;;;;;;;5.60;3.47;;;16.70;99.90;;;;;;5056588;28;20519;-82
2023/06/10 04:16:57;;;;;;;4.88;3.55;;;16.70;99.90;;;;;;5074377;28;20182;-82
2023/06/10 04:19:23;;;;;;;5.55;3.95;;;16.60;99.90;;;;;;5074420;28;20183;-82
2023/06/10 04:21:56;;;;;;;4.82;3.70;;;16.60;99.90;;;;;;5077976;28;20564;-83
2023/06/10 04:27:53;;;;;;;3.50;3.20;;;16.60;99.90;;;;;;4955749;28;20298;-82
2023/06/10 04:30:19;;;;;;;4.10;3.60;;;16.60;99.90;;;;;;4979746;28;20589;-81
2023/06/10 04:32:45;;;;;;;5.55;4.13;;;16.60;99.90;;;;;;5049008;28;20210;-83
2023/06/10 04:35:15;;;;;;;5.90;4.07;;;16.60;99.90;;;;;;5064374;28;20545;-83
2023/06/10 04:37:41;;;;;;;7.20;4.20;;;16.50;99.90;;;;;;5057201;28;20241;-82
2023/06/10 04:40:08;;;;;;;7.18;4.20;;;16.50;99.90;;;;;;5053877;28;20253;-83
2023/06/10 04:42:34;;;;;;;5.45;3.80;;;16.50;99.90;;;;;;5053811;28;20172;-83
2023/06/10 04:45:09;;;;;;;7.20;4.05;;;16.50;99.90;;;;;;5053801;28;20222;-82
2023/06/10 04:47:34;;;;;;;4.57;3.35;;;16.60;99.90;;;;;;5053851;28;20262;-83
2023/06/10 04:50:01;;;;;;;7.38;4.10;;;16.60;99.90;;;;;;5054019;28;20266;-82
2023/06/10 04:52:27;;;;;;;4.70;3.75;;;16.60;99.90;;;;;;5054005;28;20297;-83
2023/06/10 04:54:53;;;;;;;4.53;3.67;;;16.50;99.90;;;;;;5054006;28;20647;-83
2023/06/10 04:57:20;;;;;;;7.53;3.88;;;16.50;99.90;;;;;;5054524;28;20645;-83
2023/06/10 04:59:46;;;;;;;5.60;4.00;;;16.50;99.90;;;;;;5054019;28;20658;-84
2023/06/10 05:02:12;;;;;;;6.43;4.05;;;16.50;99.90;;;;;;5054059;28;20164;-84
2023/06/10 05:04:37;;;;;;;10.45;4.35;;;16.50;99.90;;;;;;5053454;28;20218;-83
2023/06/10 05:07:03;;;;;;;5.50;3.95;;;16.50;99.90;;;;;;5053998;28;20531;-83
2023/06/10 05:09:29;;;;;;;13.13;4.47;;;16.50;99.90;;;;;;5053799;28;20212;-82
2023/06/10 05:11:55;;;;;;;9.43;5.05;;;16.40;99.90;;;;;;5052574;28;20175;-83
2023/06/10 05:14:21;;;;;;;5.18;4.05;;;16.40;99.90;;;;;;5053493;28;20190;-83
2023/06/10 05:16:48;;;;;;;6.38;4.45;;;16.40;99.90;;;;;;5051551;28;20176;-84
2023/06/10 05:19:16;;;;;;;6.45;4.45;;;16.50;99.90;;;;;;5053181;28;20183;-84
2023/06/10 05:21:41;;;;;;;9.07;5.35;;;16.40;99.90;;;;;;5053260;28;20182;-84
2023/06/10 05:24:08;;;;;;;8.35;4.57;;;16.50;99.90;;;;;;5052766;28;20620;-83
2023/06/10 05:26:37;;;;;;;6.57;4.72;;;16.50;99.90;;;;;;5051779;28;20203;-83
2023/06/10 05:29:03;;;;;;;7.68;5.20;;;16.50;99.90;;;;;;5064828;28;20292;-83
2023/06/10 05:31:29;;;;;;;12.90;5.60;;;16.40;99.90;;;;;;5072782;28;20179;-83
2023/06/10 05:33:55;;;;;;;6.55;4.78;;;16.40;99.90;;;;;;5072781;28;20209;-83
2023/06/10 05:36:20;;;;;;;9.75;5.63;;;16.40;99.90;;;;;;5073489;28;20246;-83
2023/06/10 05:38:46;;;;;;;7.47;5.20;;;16.40;99.90;;;;;;5072330;28;20191;-83
2023/06/10 05:41:12;;;;;;;9.73;6.18;;;16.40;99.90;;;;;;5072632;28;20530;-83
2023/06/10 05:43:37;;;;;;;9.43;5.63;;;16.30;99.90;;;;;;5054938;28;20699;-84
2023/06/10 05:46:03;;;;;;;9.65;5.85;;;16.40;99.90;;;;;;5072622;28;20206;-84
2023/06/10 05:48:29;;;;;;;7.28;4.97;;;16.30;99.90;;;;;;5071335;28;20282;-83
2023/06/10 05:50:54;;;;;;;6.97;4.68;;;16.30;99.90;;;;;;5055220;28;20190;-83
2023/06/10 05:53:20;;;;;;;5.68;3.85;;;16.30;99.90;;;;;;5073609;28;20191;-82
2023/06/10 05:55:46;;;;;;;4.80;3.58;;;16.30;99.90;;;;;;5075602;28;20190;-83
2023/06/10 05:58:13;;;;;;;4.85;3.65;;;16.30;99.90;;;;;;5080694;28;20186;-84
2023/06/10 06:00:40;;;;;;;5.43;3.40;;;16.30;99.90;;;;;;5092069;28;20186;-84
2023/06/10 06:03:09;;;;;;;4.97;2.90;;;16.20;99.90;;;;;;5093430;28;20175;-84
2023/06/10 06:05:37;;;;;;;3.80;3.17;;;16.30;99.90;;;;;;5071790;28;20207;-82
2023/06/10 06:08:03;;;;;;;4.30;2.90;;;16.30;99.90;;;;;;5086185;28;20179;-83
2023/06/10 06:10:30;;;;;;;4.07;3.17;;;16.30;99.90;;;;;;5084393;28;20678;-82
2023/06/10 06:12:55;;;;;;;4.50;3.13;;;16.30;99.90;;;;;;5082847;28;20179;-83
2023/06/10 06:15:21;;;;;;;5.72;3.47;;;16.40;99.90;;;;;;5080228;28;20669;-84
2023/06/10 06:17:46;;;;;;;4.63;3.15;;;16.40;99.90;;;;;;5083632;28;20663;-83
2023/06/10 06:20:12;;;;;;;4.43;2.63;;;16.40;99.90;;;;;;5085152;28;20572;-83
2023/06/10 06:22:38;;;;;;;4.75;2.90;;;16.40;99.90;;;;;;5083375;28;20197;-82
2023/06/10 06:25:05;;;;;;;3.15;2.28;;;16.40;99.90;;;;;;5084270;28;20225;-83
2023/06/10 06:27:31;;;;;;;3.45;2.45;;;16.40;99.90;;;;;;5085958;28;20265;-82
2023/06/10 06:29:57;;;;;;;3.28;2.17;;;16.80;99.90;;;;;;5085181;28;20235;-83
2023/06/10 06:32:24;;;;;;;2.20;2.00;;;16.40;99.90;;;;;;5087412;28;20213;-83
2023/06/10 06:34:54;;;;;;;3.40;2.15;;;16.50;99.90;;;;;;5069451;28;20210;-83
2023/06/10 06:37:23;;;;;;;2.47;1.90;;;16.50;99.90;;;;;;5086460;28;20215;-82
2023/06/10 06:39:51;;;;;;;4.57;1.77;;;16.50;99.90;;;;;;5079317;28;20264;-82
2023/06/10 06:42:16;;;;;;;2.33;2.05;;;16.50;99.90;;;;;;5059033;28;20179;-83
2023/06/10 06:44:43;;;;;;;3.97;2.08;;;16.60;99.90;;;;;;5057245;28;20207;-82
2023/06/10 06:47:08;;;;;;;3.08;1.80;;;16.60;99.90;;;;;;5076500;28;20265;-83
2023/06/10 06:49:34;;;;;;;4.75;2.10;;;16.70;99.90;;;;;;5078181;28;20215;-82
2023/06/10 06:51:59;;;;;;;2.58;1.92;;;16.80;99.90;;;;;;5077607;28;20577;-83
2023/06/10 06:54:25;;;;;;;2.13;1.90;;;16.90;99.90;;;;;;5076006;28;20187;-83
2023/06/10 06:56:51;;;;;;;1.92;1.75;;;17.00;99.90;;;;;;5076933;28;20267;-83
2023/06/10 06:59:19;;;;;;;2.40;1.95;;;17.10;99.90;;;;;;5075532;28;20179;-83
2023/06/10 07:01:45;;;;;;;2.20;2.00;;;17.10;99.90;;;;;;5077223;28;20186;-84
2023/06/10 07:04:11;;;;;;;2.30;1.60;;;17.20;99.90;;;;;;5075830;28;20218;-83
2023/06/10 07:06:37;;;;;;;2.75;1.90;;;17.20;99.90;;;;;;5076531;28;20175;-83
2023/06/10 07:09:04;;;;;;;2.35;1.83;;;17.20;99.90;;;;;;5077227;28;20184;-83
2023/06/10 07:11:30;;;;;;;1.50;1.40;;;17.20;99.90;;;;;;5078096;28;20206;-84
2023/06/10 07:13:56;;;;;;;2.10;1.48;;;17.20;99.90;;;;;;5078021;28;20178;-85
2023/06/10 07:16:22;;;;;;;2.22;1.40;;;17.30;99.90;;;;;;5077915;28;20176;-84
2023/06/10 07:18:47;;;;;;;1.30;1.15;;;17.20;99.90;;;;;;5078554;28;20187;-84
2023/06/10 07:21:13;;;;;;;4.00;1.42;;;17.20;99.90;;;;;;5060653;28;20199;-84
2023/06/10 07:23:42;;;;;;;3.30;2.17;;;17.30;99.90;;;;;;5078101;28;20187;-84
2023/06/10 07:26:10;;;;;;;2.35;1.50;;;17.30;99.90;;;;;;5076744;28;20215;-84
2023/06/10 07:28:37;;;;;;;2.47;1.60;;;17.30;99.90;;;;;;5076521;28;20254;-84
2023/06/10 07:31:03;;;;;;;1.80;1.50;;;17.30;99.90;;;;;;5076690;28;20179;-83
2023/06/10 07:33:29;;;;;;;2.38;1.50;;;17.40;99.90;;;;;;5075808;28;20229;-84
2023/06/10 07:35:54;;;;;;;2.78;1.63;;;17.40;99.90;;;;;;5074619;28;20563;-84
2023/06/10 07:38:20;;;;;;;2.60;1.80;;;17.40;99.90;;;;;;5076478;28;20182;-84
2023/06/10 07:40:46;;;;;;;1.90;1.70;;;17.50;99.90;;;;;;5076449;28;20185;-84
2023/06/10 07:43:12;;;;;;;4.65;2.08;;;17.50;99.90;;;;;;5075371;28;20179;-84
2023/06/10 07:45:40;;;;;;;2.95;2.25;;;17.50;99.90;;;;;;5075312;28;20337;-84
2023/06/10 07:48:05;;;;;;;2.88;2.00;;;17.50;99.90;;;;;;5074990;28;20175;-84
2023/06/10 07:50:31;;;;;;;3.15;2.10;;;17.50;99.90;;;;;;5074941;28;20182;-84
2023/06/10 07:52:57;;;;;;;3.90;2.17;;;17.50;99.90;;;;;;5074947;28;20187;-84
2023/06/10 07:55:22;;;;;;;5.18;2.20;;;17.50;99.90;;;;;;5075103;28;20183;-83
2023/06/10 07:57:48;;;;;;;2.33;1.90;;;17.50;99.90;;;;;;5074586;28;20186;-83
2023/06/10 08:00:14;;;;;;;2.17;1.98;;;17.50;99.90;;;;;;5074614;28;20659;-85
2023/06/10 08:02:40;;;;;;;5.20;2.30;;;17.50;99.90;;;;;;5074542;28;20203;-84
2023/06/10 08:05:06;;;;;;;2.40;2.10;;;17.60;99.90;;;;;;5074236;28;20288;-84
2023/06/10 08:07:31;;;;;;;2.83;2.30;;;17.70;99.90;;;;;;5073353;28;20662;-85
2023/06/10 08:09:57;;;;;;;2.63;2.35;;;17.70;99.90;;;;;;5075021;28;20675;-84
2023/06/10 08:12:23;;;;;;;3.30;2.30;;;17.70;99.90;;;;;;5075202;28;20179;-84
2023/06/10 08:14:49;;;;;;;3.00;2.50;;;17.70;99.90;;;;;;5073996;28;20194;-84
2023/06/10 08:17:15;;;;;;;3.80;2.53;;;17.60;99.90;;;;;;5074688;28;20690;-84
2023/06/10 08:19:40;;;;;;;4.40;2.45;;;17.50;99.90;;;;;;5074355;28;20180;-85
2023/06/10 08:22:06;;;;;;;2.75;2.38;;;17.40;99.90;;;;;;5073942;28;20285;-82
2023/06/10 08:24:32;;;;;;;2.90;2.58;;;17.30;99.90;;;;;;5074330;28;20207;-84
2023/06/10 08:26:58;;;;;;;4.97;2.40;;;17.30;99.90;;;;;;5075159;28;20180;-82
2023/06/10 08:29:23;;;;;;;3.53;2.58;;;17.20;99.90;;;;;;5077304;28;20269;-84
2023/06/10 08:31:49;;;;;;;3.47;2.55;;;17.10;99.90;;;;;;5086159;28;20175;-82
2023/06/10 08:34:15;;;;;;;4.07;2.90;;;17.20;99.90;;;;;;5088128;28;20203;-83
2023/06/10 08:36:40;;;;;;;3.20;2.10;;;17.00;99.90;;;;;;5083686;28;20209;-83
2023/06/10 08:39:07;;;;;;;3.53;2.78;;;17.10;99.90;;;;;;5077363;28;20659;-84
2023/06/10 08:41:40;;;;;;;3.40;2.70;;;17.10;99.90;;;;;;5074271;28;20180;-84
2023/06/10 08:44:18;;;;;;;3.42;2.42;;;17.10;99.90;;;;;;5074827;28;20194;-84
2023/06/10 08:46:45;;;;;;;4.38;2.65;;;17.10;99.90;;;;;;5074001;28;20194;-83
2023/06/10 08:49:20;;;;;;;3.60;2.58;;;17.10;99.90;;;;;;5072606;28;20174;-81
2023/06/10 08:51:51;;;;;;;3.28;2.80;;;17.20;99.90;;;;;;5074818;28;20171;-82
2023/06/10 08:54:25;;;;;;;4.47;3.08;;;17.20;99.90;;;;;;5075500;28;20179;-83
2023/06/10 08:56:53;;;;;;;3.95;2.83;;;17.20;99.90;;;;;;5074041;28;20167;-83
2023/06/10 08:59:20;;;;;;;2.33;2.13;;;17.30;99.90;;;;;;5056548;28;20233;-84
2023/06/10 09:01:46;;;;;;;4.22;3.17;;;17.30;99.90;;;;;;5073807;28;20610;-84
2023/06/10 09:04:12;;;;;;;4.18;3.10;;;17.40;99.90;;;;;;5073860;28;20207;-84
2023/06/10 09:06:40;;;;;;;2.88;2.50;;;17.30;99.90;;;;;;5073642;28;20194;-84
2023/06/10 09:09:07;;;;;;;3.47;2.80;;;17.40;99.90;;;;;;5083072;28;20184;-82
2023/06/10 09:11:33;;;;;;;3.60;2.45;;;17.30;99.90;;;;;;5083251;28;20296;-84
2023/06/10 09:13:59;;;;;;;4.22;2.67;;;17.20;99.90;;;;;;5062083;28;20213;-82
2023/06/10 09:16:25;;;;;;;7.68;3.03;;;17.20;99.90;;;;;;5061192;28;20655;-82
2023/06/10 09:18:54;;;;;;;3.90;2.65;;;17.20;99.90;;;;;;5056485;28;20180;-84
2023/06/10 09:21:23;;;;;;;4.65;2.80;;;17.20;99.90;;;;;;5076895;28;20215;-83
2023/06/10 09:23:50;;;;;;;3.22;2.10;;;17.20;99.90;;;;;;5072801;28;20228;-83
2023/06/10 09:26:16;;;;;;;3.67;2.20;;;17.20;99.90;;;;;;5074301;28;20214;-82
2023/06/10 09:28:44;;;;;;;3.15;2.50;;;17.10;99.90;;;;;;5074920;28;20231;-84
2023/06/10 09:31:11;;;;;;;3.53;2.53;;;17.10;99.90;;;;;;5074032;28;20704;-83
2023/06/10 09:33:41;;;;;;;3.22;2.38;;;17.20;99.90;;;;;;5043559;28;20187;-83
2023/06/10 09:36:07;;;;;;;3.72;2.00;;;17.10;99.90;;;;;;5075428;28;20204;-82
2023/06/10 09:38:34;;;;;;;3.88;2.45;;;17.20;99.90;;;;;;5076876;28;20194;-80
2023/06/10 09:41:01;;;;;;;2.80;2.13;;;17.30;99.90;;;;;;5075060;28;20236;-83
2023/06/10 09:43:44;;;;;;;2.70;1.92;;;17.40;99.90;;;;;;5050008;28;20186;-81
2023/06/10 09:46:18;;;;;;;3.28;2.45;;;17.50;99.90;;;;;;5101553;28;20191;-83
2023/06/10 09:48:45;;;;;;;3.47;2.40;;;17.90;99.90;;;;;;5089053;28;20193;-85
2023/06/10 09:51:13;;;;;;;2.72;2.10;;;18.30;99.90;;;;;;5048190;28;20544;-83
2023/06/10 09:53:39;;;;;;;4.10;2.33;;;18.50;99.90;;;;;;5084391;28;20228;-83
2023/06/10 09:56:05;;;;;;;4.65;2.20;;;18.60;99.90;;;;;;5082852;28;20206;-82
2023/06/10 09:58:39;;;;;;;2.67;1.83;;;18.80;99.90;;;;;;5083255;28;20193;-83
2023/06/10 10:01:06;;;;;;;3.80;1.88;;;19.00;99.90;;;;;;5066260;28;20225;-82
2023/06/10 10:03:31;;;;;;;2.90;2.00;;;19.00;99.90;;;;;;5087690;28;20215;-81
2023/06/10 10:06:00;;;;;;;2.38;1.73;;;18.90;99.90;;;;;;5092114;28;20211;-82
2023/06/10 10:08:26;;;;;;;2.45;1.85;;;18.80;99.90;;;;;;5078464;28;20187;-82
2023/06/10 10:10:52;;;;;;;2.38;1.95;;;18.70;99.90;;;;;;5081077;28;20181;-82
2023/06/10 10:13:18;;;;;;;4.07;2.15;;;18.70;99.90;;;;;;5059360;28;20651;-82
2023/06/10 10:15:46;;;;;;;2.38;2.05;;;18.60;99.90;;;;;;5060176;28;20194;-81
2023/06/10 10:18:17;;;;;;;2.03;1.83;;;18.50;99.90;;;;;;5059573;28;20191;-82
2023/06/10 10:20:49;;;;;;;2.08;1.88;;;18.40;99.90;;;;;;5059575;28;20628;-83
2023/06/10 10:23:24;;;;;;;2.75;2.13;;;18.40;99.90;;;;;;5064130;28;20209;-82
2023/06/10 10:25:53;;;;;;;2.47;2.28;;;18.40;99.90;;;;;;5056411;28;20755;-82
2023/06/10 10:28:21;;;;;;;4.72;2.55;;;18.40;99.90;;;;;;5054299;28;20231;-81
2023/06/10 10:30:50;;;;;;;3.28;2.70;;;18.60;99.90;;;;;;5055476;28;20233;-82
2023/06/10 10:33:20;;;;;;;3.53;2.47;;;18.60;99.90;;;;;;5074435;28;20194;-82
2023/06/10 10:35:50;;;;;;;3.03;2.40;;;18.60;99.90;;;;;;5077207;28;20266;-82
2023/06/10 10:38:16;;;;;;;3.05;2.20;;;18.60;99.90;;;;;;5077304;28;20175;-83
2023/06/10 10:40:43;;;;;;;5.75;2.45;;;18.60;99.90;;;;;;5079913;28;20179;-83
2023/06/10 10:43:10;;;;;;;4.80;2.30;;;18.70;99.90;;;;;;5080116;28;20179;-83
2023/06/10 10:45:36;;;;;;;2.90;2.13;;;18.60;99.90;;;;;;5080359;28;20214;-81
2023/06/10 10:48:11;;;;;;;5.30;2.58;;;18.50;99.90;;;;;;5080116;28;20184;-82
2023/06/10 10:50:38;;;;;;;4.13;2.55;;;18.50;99.90;;;;;;5076567;28;20166;-81
2023/06/10 10:53:05;;;;;;;3.67;2.83;;;18.50;99.90;;;;;;5076611;28;20175;-81
2023/06/10 10:55:31;;;;;;;3.55;2.58;;;18.50;99.90;;;;;;5075419;28;20175;-81
2023/06/10 10:58:05;;;;;;;3.78;2.60;;;18.40;99.90;;;;;;5076621;28;20531;-81
2023/06/10 11:00:32;;;;;;;3.60;2.70;;;18.50;99.90;;;;;;5077327;28;20175;-81
2023/06/10 11:03:07;;;;;;;3.15;2.47;;;18.40;99.90;;;;;;5076325;28;20194;-81
2023/06/10 11:05:49;;;;;;;3.58;2.67;;;18.40;99.90;;;;;;5077022;28;20211;-81
2023/06/10 11:08:35;;;;;;;4.45;2.90;;;18.40;99.90;;;;;;5075382;28;20269;-81
2023/06/10 11:11:17;;;;;;;3.30;2.80;;;18.40;99.90;;;;;;5073570;28;20278;-81
2023/06/10 11:14:07;;;;;;;4.10;2.92;;;18.30;99.90;;;;;;5076327;28;20179;-82
2023/06/10 11:16:41;;;;;;;3.22;2.72;;;18.30;99.90;;;;;;5075620;28;20178;-82
2023/06/10 11:19:07;;;;;;;3.95;2.70;;;18.30;99.90;;;;;;5037852;28;20171;-84
2023/06/10 11:21:57;;;;;;;3.83;2.83;;;18.30;99.90;;;;;;5054860;28;20179;-81
2023/06/10 11:24:23;;;;;;;5.75;3.08;;;18.30;99.90;;;;;;5071458;28;20215;-81
2023/06/10 11:26:48;;;;;;;3.67;3.03;;;18.40;99.90;;;;;;5069862;28;20297;-82
2023/06/10 11:29:15;;;;;;;4.50;3.42;;;18.40;99.90;;;;;;5067417;28;20222;-82
2023/06/10 11:31:43;;;;;;;3.65;2.67;;;18.50;99.90;;;;;;5073371;28;20278;-82
2023/06/10 11:34:09;;;;;;;4.57;3.15;;;18.50;99.90;;;;;;5067296;28;20191;-83
2023/06/10 11:36:42;;;;;;;4.00;3.03;;;18.60;99.90;;;;;;5076518;28;20187;-82
2023/06/10 11:39:09;;;;;;;4.97;3.03;;;18.60;99.90;;;;;;5076255;28;20296;-80
2023/06/10 11:41:37;;;;;;;3.25;2.75;;;18.70;99.90;;;;;;5075571;28;20262;-80
2023/06/10 11:44:11;;;;;;;4.32;3.33;;;18.80;99.90;;;;;;5077335;28;20624;-82
2023/06/10 11:46:37;;;;;;;6.25;2.58;;;19.00;99.90;;;;;;5077072;28;20194;-82
2023/06/10 11:49:05;;;;;;;4.18;2.88;;;19.10;99.90;;;;;;5077423;28;20666;-82
2023/06/10 11:51:37;;;;;;;3.97;2.95;;;19.20;99.90;;;;;;5058726;28;20190;-79
2023/06/10 11:54:04;;;;;;;5.75;3.47;;;19.20;99.90;;;;;;5075713;28;20183;-81
2023/06/10 11:56:32;;;;;;;3.22;2.70;;;19.20;99.90;;;;;;5072637;28;20187;-82
2023/06/10 11:59:06;;;;;;;2.60;2.40;;;19.20;99.90;;;;;;5074565;28;20187;-81
2023/06/10 12:01:34;;;;;;;4.38;3.30;;;19.20;99.90;;;;;;5074049;28;20170;-81
2023/06/10 12:04:05;;;;;;;3.40;2.85;;;19.30;99.90;;;;;;5073848;28;20268;-80
2023/06/10 12:06:48;;;;;;;4.55;3.55;;;19.30;99.90;;;;;;5073252;28;20186;-81
2023/06/10 12:09:21;;;;;;;7.78;3.38;;;19.60;99.90;;;;;;5073743;28;20186;-83
2023/06/10 12:11:59;;;;;;;4.43;3.20;;;19.70;99.90;;;;;;5069535;28;20183;-82
2023/06/10 12:14:56;;;;;;;5.93;3.33;;;19.80;99.90;;;;;;5072458;28;20266;-83
2023/06/10 12:17:33;;;;;;;5.47;3.25;;;20.10;99.90;;;;;;5070854;28;20554;-82
2023/06/10 12:20:03;;;;;;;5.63;3.22;;;20.30;99.90;;;;;;5052918;28;20202;-82
2023/06/10 12:22:39;;;;;;;3.50;3.20;;;20.40;99.90;;;;;;5071190;28;20267;-80
2023/06/10 12:25:06;;;;;;;4.78;3.58;;;20.50;99.90;;;;;;5073215;28;20218;-81
2023/06/10 12:27:33;;;;;;;6.28;3.50;;;20.40;99.90;;;;;;5075173;28;20198;-83
2023/06/10 12:30:06;;;;;;;5.07;3.15;;;20.60;99.90;;;;;;5072136;28;20284;-82
2023/06/10 12:32:44;;;;;;;7.28;3.90;;;20.70;99.90;;;;;;5071343;28;20194;-81
2023/06/10 12:35:12;;;;;;;5.00;3.67;;;20.80;99.90;;;;;;5071919;28;20167;-84
2023/06/10 12:37:39;;;;;;;5.97;4.25;;;20.80;99.90;;;;;;5071519;28;20175;-81
2023/06/10 12:40:06;;;;;;;4.75;3.72;;;21.00;99.90;;;;;;5071341;28;20181;-81
2023/06/10 12:42:34;;;;;;;6.38;4.53;;;21.00;99.90;;;;;;5054067;28;20552;-81
2023/06/10 12:45:01;;;;;;;7.18;4.60;;;21.10;99.90;;;;;;5072887;28;20668;-83
2023/06/10 12:47:35;;;;;;;6.47;4.10;;;21.10;99.90;;;;;;5072453;28;20669;-82
2023/06/10 12:50:01;;;;;;;10.95;4.80;;;21.10;99.90;;;;;;5073001;28;20237;-82
2023/06/10 12:52:27;;;;;;;5.50;4.55;;;21.10;99.90;;;;;;5072422;28;20652;-82